Terminal Aerodrome Forecast
Issued by NWS Cleveland, OH

Home | Current Version | Previous Version | Graphics & Text | Print | Product List | Glossary Off
Versions: 1 2 3 4 5 6 7 8 9 10 11 12 13 14 15 16 17 18 19 20 21

956
FTUS41 KCLE 151741
TAFMFD
TAF
KMFD 151741Z 1518/1618 20012G20KT P6SM OVC040
     FM151900 22012G20KT P6SM VCSH OVC020
      TEMPO 1519/1521 4SM -SHSN OVC015
     FM152300 25013KT P6SM SCT015 OVC030
     FM160600 25012KT 4SM -SHSN BKN015 OVC025
     FM161000 25012KT P6SM OVC025=

USA.gov is the U.S. government's official web portal to all federal, state and local government web resources and services.